CSZ9409 ZGSZ-ZUUU
Flight info
| Callsign | CSZ9409 |
|---|---|
| Flight time | 2h 5m |
| Altitude | 34100 |
| Route | GUDRO W56 IGMIG IGM9V |
| Aircraft | A321/M-SDE1FGHILORVWXY/HB1 |
Departure
| Time | 2026-04-22 10:07 |
|---|---|
| Airport | Shenzhen Bao'an International Airport (ZGSZ) |
Arrival
| Time | 2026-04-22 12:12 |
|---|---|
| Airport | Chengdu Shuangliu International Airport (ZUUU) |
| Time | Latitude | Longitude | Altitude | Speed | Heading |
|---|---|---|---|---|---|
| 2026-04-22 09:48 | 22.63332 | 113.80827 | 22 ft | 0 kts | 334° |
| 2026-04-22 09:57 | 22.63329 | 113.80829 | 22 ft | 2 kts | 334° |
| 2026-04-22 09:57 | 22.63319 | 113.80834 | 22 ft | 2 kts | 333° |
| 2026-04-22 09:57 | 22.63307 | 113.80841 | 22 ft | 2 kts | 334° |
| 2026-04-22 09:58 | 22.63292 | 113.80849 | 22 ft | 2 kts | 333° |
| 2026-04-22 09:58 | 22.63277 | 113.80852 | 22 ft | 2 kts | 15° |
| 2026-04-22 09:58 | 22.63264 | 113.80844 | 22 ft | 2 kts | 51° |
| 2026-04-22 09:58 | 22.63260 | 113.80838 | 22 ft | 1 kts | 67° |
| 2026-04-22 09:59 | 22.63259 | 113.80834 | 22 ft | 0 kts | 62° |
| 2026-04-22 10:00 | 22.63286 | 113.80891 | 22 ft | 11 kts | 64° |
| 2026-04-22 10:01 | 22.63318 | 113.80970 | 22 ft | 12 kts | 66° |
| 2026-04-22 10:01 | 22.63357 | 113.81051 | 22 ft | 13 kts | 59° |
| 2026-04-22 10:01 | 22.63416 | 113.81116 | 22 ft | 11 kts | 14° |
| 2026-04-22 10:01 | 22.63481 | 113.81096 | 22 ft | 14 kts | 338° |
| 2026-04-22 10:02 | 22.63577 | 113.81047 | 22 ft | 16 kts | 331° |
| 2026-04-22 10:02 | 22.63674 | 113.80983 | 22 ft | 17 kts | 326° |
| 2026-04-22 10:02 | 22.63777 | 113.80929 | 22 ft | 15 kts | 336° |
| 2026-04-22 10:02 | 22.63846 | 113.80892 | 22 ft | 12 kts | 332° |
| 2026-04-22 10:03 | 22.63923 | 113.80848 | 22 ft | 13 kts | 335° |
| 2026-04-22 10:03 | 22.64007 | 113.80804 | 22 ft | 14 kts | 334° |
| 2026-04-22 10:03 | 22.64092 | 113.80759 | 22 ft | 15 kts | 333° |
| 2026-04-22 10:03 | 22.64164 | 113.80719 | 22 ft | 22 kts | 333° |
| 2026-04-22 10:04 | 22.64298 | 113.80642 | 22 ft | 25 kts | 331° |
| 2026-04-22 10:04 | 22.64444 | 113.80565 | 22 ft | 24 kts | 331° |
| 2026-04-22 10:04 | 22.64593 | 113.80483 | 22 ft | 23 kts | 332° |
| 2026-04-22 10:04 | 22.64735 | 113.80402 | 22 ft | 23 kts | 334° |
| 2026-04-22 10:05 | 22.64868 | 113.80337 | 22 ft | 22 kts | 336° |
| 2026-04-22 10:05 | 22.64992 | 113.80269 | 22 ft | 22 kts | 332° |
| 2026-04-22 10:05 | 22.65087 | 113.80223 | 22 ft | 16 kts | 355° |
| 2026-04-22 10:05 | 22.65172 | 113.80309 | 22 ft | 15 kts | 65° |
| 2026-04-22 10:06 | 22.65179 | 113.80382 | 22 ft | 10 kts | 125° |
| 2026-04-22 10:06 | 22.65077 | 113.80442 | 22 ft | 47 kts | 155° |
| 2026-04-22 10:06 | 22.64577 | 113.80709 | 22 ft | 119 kts | 152° |
| 2026-04-22 10:06 | 22.63713 | 113.81194 | 23 ft | 176 kts | 153° |
| 2026-04-22 10:07 | 22.62589 | 113.81778 | 645 ft | 181 kts | 156° |
| 2026-04-22 10:07 | 22.61703 | 113.82194 | 1276 ft | 179 kts | 156° |
| 2026-04-22 10:07 | 22.60368 | 113.82923 | 1938 ft | 190 kts | 152° |
| 2026-04-22 10:07 | 22.59211 | 113.83568 | 2289 ft | 203 kts | 153° |
| 2026-04-22 10:08 | 22.57748 | 113.85321 | 2747 ft | 229 kts | 105° |
| 2026-04-22 10:08 | 22.57598 | 113.86791 | 3073 ft | 242 kts | 89° |
| 2026-04-22 10:08 | 22.57653 | 113.88953 | 3935 ft | 246 kts | 87° |
| 2026-04-22 10:08 | 22.58054 | 113.90984 | 4793 ft | 246 kts | 62° |
| 2026-04-22 10:09 | 22.58954 | 113.92664 | 5509 ft | 249 kts | 58° |
| 2026-04-22 10:09 | 22.60024 | 113.94112 | 6163 ft | 251 kts | 36° |
| 2026-04-22 10:09 | 22.61377 | 113.95020 | 6842 ft | 251 kts | 28° |
| 2026-04-22 10:09 | 22.62271 | 113.95528 | 7235 ft | 252 kts | 22° |
| 2026-04-22 10:10 | 22.63285 | 113.95850 | 7581 ft | 255 kts | 6° |
| 2026-04-22 10:10 | 22.66309 | 113.94754 | 8318 ft | 277 kts | 323° |
| 2026-04-22 10:10 | 22.67859 | 113.93484 | 9011 ft | 280 kts | 323° |
| 2026-04-22 10:10 | 22.69442 | 113.92192 | 9558 ft | 282 kts | 323° |
| 2026-04-22 10:11 | 22.72670 | 113.89604 | 9783 ft | 282 kts | 324° |
| 2026-04-22 10:11 | 22.73829 | 113.88682 | 9787 ft | 282 kts | 324° |
| 2026-04-22 10:11 | 22.75747 | 113.87161 | 9938 ft | 287 kts | 324° |
| 2026-04-22 10:12 | 22.77394 | 113.85858 | 10452 ft | 294 kts | 324° |
| 2026-04-22 10:12 | 22.79094 | 113.84513 | 10767 ft | 309 kts | 324° |
| 2026-04-22 10:12 | 22.80879 | 113.83099 | 11058 ft | 325 kts | 324° |
| 2026-04-22 10:12 | 22.82769 | 113.81603 | 11345 ft | 341 kts | 324° |
| 2026-04-22 10:13 | 22.84747 | 113.80037 | 11622 ft | 357 kts | 324° |
| 2026-04-22 10:13 | 22.86799 | 113.78413 | 11893 ft | 372 kts | 324° |
| 2026-04-22 10:13 | 22.88939 | 113.76718 | 12153 ft | 387 kts | 324° |
| 2026-04-22 10:13 | 22.90728 | 113.75332 | 12411 ft | 396 kts | 326° |
| 2026-04-22 10:14 | 22.93435 | 113.73473 | 13098 ft | 401 kts | 330° |
| 2026-04-22 10:14 | 22.95905 | 113.71993 | 13763 ft | 403 kts | 332° |
| 2026-04-22 10:14 | 22.98090 | 113.70728 | 14295 ft | 406 kts | 332° |
| 2026-04-22 10:14 | 23.00809 | 113.69162 | 14920 ft | 410 kts | 332° |
| 2026-04-22 10:15 | 23.03347 | 113.67699 | 15486 ft | 413 kts | 333° |
| 2026-04-22 10:15 | 23.05902 | 113.66223 | 16035 ft | 416 kts | 333° |
| 2026-04-22 10:15 | 23.08472 | 113.64736 | 16563 ft | 420 kts | 333° |
| 2026-04-22 10:15 | 23.11078 | 113.63227 | 17082 ft | 423 kts | 333° |
| 2026-04-22 10:16 | 23.13722 | 113.61700 | 17599 ft | 427 kts | 333° |
| 2026-04-22 10:16 | 23.16376 | 113.60167 | 18100 ft | 430 kts | 333° |
| 2026-04-22 10:16 | 23.18841 | 113.58739 | 18548 ft | 433 kts | 333° |
| 2026-04-22 10:16 | 23.21239 | 113.57347 | 18968 ft | 436 kts | 333° |
| 2026-04-22 10:17 | 23.24009 | 113.55737 | 19438 ft | 439 kts | 333° |
| 2026-04-22 10:17 | 23.26856 | 113.54081 | 19905 ft | 442 kts | 333° |
| 2026-04-22 10:17 | 23.29579 | 113.52494 | 20338 ft | 445 kts | 333° |
| 2026-04-22 10:17 | 23.32337 | 113.50887 | 20756 ft | 448 kts | 333° |
| 2026-04-22 10:18 | 23.35100 | 113.49275 | 21167 ft | 451 kts | 333° |
| 2026-04-22 10:18 | 23.37876 | 113.47654 | 21568 ft | 454 kts | 333° |
| 2026-04-22 10:18 | 23.40668 | 113.46021 | 21961 ft | 456 kts | 333° |
| 2026-04-22 10:18 | 23.43477 | 113.44377 | 22342 ft | 459 kts | 333° |
| 2026-04-22 10:19 | 23.46298 | 113.42727 | 22710 ft | 462 kts | 333° |
| 2026-04-22 10:19 | 23.49141 | 113.41064 | 23069 ft | 464 kts | 332° |
| 2026-04-22 10:19 | 23.51942 | 113.39221 | 23427 ft | 467 kts | 327° |
| 2026-04-22 10:19 | 23.54587 | 113.37113 | 23894 ft | 467 kts | 322° |
| 2026-04-22 10:20 | 23.57034 | 113.34772 | 24415 ft | 466 kts | 317° |
| 2026-04-22 10:20 | 23.59344 | 113.32306 | 24893 ft | 465 kts | 316° |
| 2026-04-22 10:20 | 23.61649 | 113.29780 | 25334 ft | 465 kts | 316° |
| 2026-04-22 10:20 | 23.63926 | 113.27261 | 25761 ft | 464 kts | 314° |
| 2026-04-22 10:21 | 23.65996 | 113.24560 | 26103 ft | 467 kts | 307° |
| 2026-04-22 10:21 | 23.67798 | 113.21557 | 26422 ft | 470 kts | 301° |
| 2026-04-22 10:21 | 23.69278 | 113.18361 | 26807 ft | 471 kts | 296° |
| 2026-04-22 10:21 | 23.70632 | 113.15102 | 27234 ft | 470 kts | 295° |
| 2026-04-22 10:22 | 23.71955 | 113.11838 | 27646 ft | 469 kts | 295° |
| 2026-04-22 10:22 | 23.73280 | 113.08579 | 28039 ft | 468 kts | 295° |
| 2026-04-22 10:22 | 23.74604 | 113.05349 | 28418 ft | 467 kts | 295° |
| 2026-04-22 10:22 | 23.76102 | 113.02208 | 28763 ft | 466 kts | 305° |
| 2026-04-22 10:23 | 23.78176 | 112.99510 | 29119 ft | 462 kts | 318° |
| 2026-04-22 10:23 | 23.80723 | 112.97417 | 29491 ft | 459 kts | 331° |
| 2026-04-22 10:23 | 23.83609 | 112.95999 | 29841 ft | 456 kts | 342° |
| 2026-04-22 10:23 | 23.86626 | 112.94976 | 30197 ft | 454 kts | 344° |
| 2026-04-22 10:24 | 23.89647 | 112.94014 | 30509 ft | 454 kts | 345° |
| 2026-04-22 10:24 | 23.92668 | 112.93048 | 30818 ft | 453 kts | 344° |
| 2026-04-22 10:24 | 23.95674 | 112.92068 | 31133 ft | 453 kts | 344° |
| 2026-04-22 10:24 | 23.98693 | 112.91070 | 31450 ft | 451 kts | 344° |
| 2026-04-22 10:25 | 24.01682 | 112.90076 | 31757 ft | 450 kts | 344° |
| 2026-04-22 10:25 | 24.04663 | 112.89082 | 32057 ft | 449 kts | 344° |
| 2026-04-22 10:25 | 24.07641 | 112.88087 | 32349 ft | 448 kts | 344° |
| 2026-04-22 10:25 | 24.10607 | 112.87097 | 32634 ft | 447 kts | 344° |
| 2026-04-22 10:26 | 24.13540 | 112.86122 | 32912 ft | 446 kts | 344° |
| 2026-04-22 10:26 | 24.16497 | 112.85142 | 33191 ft | 445 kts | 344° |
| 2026-04-22 10:26 | 24.19473 | 112.84158 | 33466 ft | 444 kts | 344° |
| 2026-04-22 10:26 | 24.22419 | 112.83183 | 33731 ft | 443 kts | 344° |
| 2026-04-22 10:27 | 24.25351 | 112.82208 | 33860 ft | 443 kts | 344° |
| 2026-04-22 10:27 | 24.28280 | 112.81232 | 33869 ft | 442 kts | 344° |
| 2026-04-22 10:27 | 24.34121 | 112.79282 | 33875 ft | 441 kts | 344° |
| 2026-04-22 10:28 | 24.39916 | 112.77102 | 33874 ft | 442 kts | 335° |
| 2026-04-22 10:28 | 24.44919 | 112.73244 | 33877 ft | 445 kts | 316° |
| 2026-04-22 10:29 | 24.48536 | 112.67764 | 33877 ft | 449 kts | 298° |
| 2026-04-22 10:29 | 24.50342 | 112.61232 | 33878 ft | 454 kts | 279° |
| 2026-04-22 10:30 | 24.51035 | 112.54347 | 33876 ft | 454 kts | 277° |
| 2026-04-22 10:30 | 24.51665 | 112.47479 | 33876 ft | 454 kts | 278° |
| 2026-04-22 10:31 | 24.52313 | 112.40605 | 33876 ft | 454 kts | 278° |
| 2026-04-22 10:31 | 24.52971 | 112.33714 | 33876 ft | 454 kts | 277° |
| 2026-04-22 10:32 | 24.53624 | 112.26845 | 33876 ft | 454 kts | 277° |
| 2026-04-22 10:32 | 24.54276 | 112.19972 | 33876 ft | 454 kts | 277° |
| 2026-04-22 10:33 | 24.54925 | 112.13110 | 33876 ft | 454 kts | 277° |
| 2026-04-22 10:33 | 24.55575 | 112.06216 | 33876 ft | 454 kts | 277° |
| 2026-04-22 10:34 | 24.56220 | 111.99338 | 33881 ft | 454 kts | 277° |
| 2026-04-22 10:34 | 24.56862 | 111.92466 | 33896 ft | 454 kts | 277° |
| 2026-04-22 10:35 | 24.57502 | 111.85575 | 33917 ft | 454 kts | 277° |
| 2026-04-22 10:35 | 24.58136 | 111.78713 | 33941 ft | 453 kts | 277° |
| 2026-04-22 10:36 | 24.58767 | 111.71854 | 33963 ft | 453 kts | 277° |
| 2026-04-22 10:36 | 24.59394 | 111.65002 | 33982 ft | 453 kts | 277° |
| 2026-04-22 10:37 | 24.60330 | 111.54694 | 34002 ft | 453 kts | 277° |
| 2026-04-22 10:38 | 24.60950 | 111.47813 | 34008 ft | 453 kts | 277° |
| 2026-04-22 10:38 | 24.61573 | 111.40833 | 34010 ft | 453 kts | 277° |
| 2026-04-22 10:39 | 24.62190 | 111.33880 | 34010 ft | 453 kts | 277° |
| 2026-04-22 10:39 | 24.62801 | 111.26961 | 34010 ft | 453 kts | 277° |
| 2026-04-22 10:40 | 24.63404 | 111.20047 | 34010 ft | 453 kts | 277° |
| 2026-04-22 10:40 | 24.64002 | 111.13114 | 34010 ft | 453 kts | 277° |
| 2026-04-22 10:41 | 24.64592 | 111.06203 | 34011 ft | 452 kts | 277° |
| 2026-04-22 10:41 | 24.65174 | 110.99340 | 34011 ft | 450 kts | 277° |
| 2026-04-22 10:42 | 24.65748 | 110.92536 | 34011 ft | 448 kts | 277° |
| 2026-04-22 10:42 | 24.66464 | 110.85772 | 34010 ft | 444 kts | 283° |
| 2026-04-22 10:43 | 24.68312 | 110.79367 | 34011 ft | 441 kts | 296° |
| 2026-04-22 10:43 | 24.71389 | 110.73607 | 34011 ft | 439 kts | 308° |
| 2026-04-22 10:44 | 24.75499 | 110.68683 | 34012 ft | 438 kts | 317° |
| 2026-04-22 10:44 | 24.79884 | 110.64087 | 34011 ft | 438 kts | 317° |
| 2026-04-22 10:45 | 24.84286 | 110.59474 | 34010 ft | 438 kts | 317° |
| 2026-04-22 10:45 | 24.88660 | 110.54868 | 34010 ft | 438 kts | 317° |
| 2026-04-22 10:46 | 24.93051 | 110.50230 | 34010 ft | 438 kts | 317° |
| 2026-04-22 10:46 | 24.97418 | 110.45609 | 34011 ft | 438 kts | 317° |
| 2026-04-22 10:47 | 25.01778 | 110.41001 | 34011 ft | 435 kts | 317° |
| 2026-04-22 10:47 | 25.06137 | 110.36411 | 34011 ft | 433 kts | 316° |
| 2026-04-22 10:48 | 25.10237 | 110.32069 | 34011 ft | 432 kts | 315° |
| 2026-04-22 10:48 | 25.14778 | 110.27264 | 34011 ft | 431 kts | 315° |
| 2026-04-22 10:49 | 25.19150 | 110.22633 | 34010 ft | 431 kts | 315° |
| 2026-04-22 10:49 | 25.23526 | 110.18034 | 34010 ft | 431 kts | 315° |
| 2026-04-22 10:50 | 25.27904 | 110.13468 | 34010 ft | 431 kts | 315° |
| 2026-04-22 10:50 | 25.32269 | 110.08900 | 34010 ft | 431 kts | 315° |
| 2026-04-22 10:51 | 25.36696 | 110.04257 | 34010 ft | 431 kts | 315° |
| 2026-04-22 10:51 | 25.41099 | 109.99632 | 34010 ft | 431 kts | 315° |
| 2026-04-22 10:52 | 25.45483 | 109.95021 | 34010 ft | 432 kts | 315° |
| 2026-04-22 10:52 | 25.49863 | 109.90410 | 34010 ft | 432 kts | 315° |
| 2026-04-22 10:53 | 25.54242 | 109.85793 | 34010 ft | 432 kts | 315° |
| 2026-04-22 10:53 | 25.58595 | 109.81199 | 34010 ft | 432 kts | 315° |
| 2026-04-22 10:54 | 25.62952 | 109.76592 | 34010 ft | 432 kts | 315° |
| 2026-04-22 10:54 | 25.67321 | 109.71967 | 34010 ft | 432 kts | 315° |
| 2026-04-22 10:55 | 25.71615 | 109.67357 | 34010 ft | 431 kts | 313° |
| 2026-04-22 10:55 | 25.75384 | 109.62234 | 34010 ft | 431 kts | 304° |
| 2026-04-22 10:56 | 25.78369 | 109.56524 | 34010 ft | 431 kts | 296° |
| 2026-04-22 10:56 | 25.80517 | 109.50335 | 34010 ft | 431 kts | 288° |
| 2026-04-22 10:57 | 25.82218 | 109.43975 | 34010 ft | 431 kts | 287° |
| 2026-04-22 10:57 | 25.83896 | 109.37613 | 34010 ft | 431 kts | 287° |
| 2026-04-22 10:58 | 25.85588 | 109.31190 | 34011 ft | 431 kts | 287° |
| 2026-04-22 10:58 | 25.87266 | 109.24815 | 34010 ft | 431 kts | 287° |
| 2026-04-22 10:59 | 25.88942 | 109.18449 | 34011 ft | 431 kts | 287° |
| 2026-04-22 10:59 | 25.90613 | 109.12100 | 34011 ft | 430 kts | 287° |
| 2026-04-22 11:00 | 25.92285 | 109.05737 | 34011 ft | 429 kts | 287° |
| 2026-04-22 11:00 | 25.93945 | 108.99406 | 34011 ft | 428 kts | 287° |
| 2026-04-22 11:01 | 25.95597 | 108.93094 | 34010 ft | 427 kts | 287° |
| 2026-04-22 11:01 | 25.97251 | 108.86760 | 34010 ft | 427 kts | 287° |
| 2026-04-22 11:02 | 25.98895 | 108.80450 | 34010 ft | 427 kts | 287° |
| 2026-04-22 11:02 | 26.00538 | 108.74131 | 34010 ft | 427 kts | 287° |
| 2026-04-22 11:03 | 26.02203 | 108.67828 | 34011 ft | 427 kts | 287° |
| 2026-04-22 11:03 | 26.03891 | 108.61500 | 34017 ft | 427 kts | 287° |
| 2026-04-22 11:04 | 26.05568 | 108.55183 | 34026 ft | 428 kts | 287° |
| 2026-04-22 11:04 | 26.07238 | 108.48870 | 34039 ft | 428 kts | 287° |
| 2026-04-22 11:05 | 26.08952 | 108.42543 | 34054 ft | 428 kts | 289° |
| 2026-04-22 11:05 | 26.11131 | 108.36403 | 34061 ft | 427 kts | 295° |
| 2026-04-22 11:06 | 26.13712 | 108.30435 | 34065 ft | 427 kts | 295° |
| 2026-04-22 11:06 | 26.16290 | 108.24497 | 34065 ft | 427 kts | 295° |
| 2026-04-22 11:07 | 26.18866 | 108.18542 | 34065 ft | 427 kts | 295° |
| 2026-04-22 11:07 | 26.21428 | 108.12606 | 34065 ft | 427 kts | 295° |
| 2026-04-22 11:08 | 26.23995 | 108.06651 | 34065 ft | 427 kts | 295° |
| 2026-04-22 11:08 | 26.26563 | 108.00681 | 34065 ft | 427 kts | 295° |
| 2026-04-22 11:09 | 26.29126 | 107.94715 | 34065 ft | 427 kts | 295° |
| 2026-04-22 11:09 | 26.31678 | 107.88766 | 34065 ft | 427 kts | 295° |
| 2026-04-22 11:10 | 26.34225 | 107.82821 | 34065 ft | 427 kts | 295° |
| 2026-04-22 11:10 | 26.36780 | 107.76846 | 34065 ft | 427 kts | 295° |
| 2026-04-22 11:11 | 26.39323 | 107.70890 | 34065 ft | 427 kts | 295° |
| 2026-04-22 11:11 | 26.41865 | 107.64922 | 34065 ft | 427 kts | 295° |
| 2026-04-22 11:12 | 26.44410 | 107.58936 | 34065 ft | 428 kts | 295° |
| 2026-04-22 11:12 | 26.46944 | 107.52972 | 34065 ft | 428 kts | 295° |
| 2026-04-22 11:13 | 26.49481 | 107.47002 | 34065 ft | 428 kts | 295° |
| 2026-04-22 11:13 | 26.52007 | 107.41033 | 34065 ft | 428 kts | 295° |
| 2026-04-22 11:14 | 26.54542 | 107.35032 | 34065 ft | 428 kts | 295° |
| 2026-04-22 11:14 | 26.57072 | 107.29047 | 34065 ft | 428 kts | 295° |
| 2026-04-22 11:15 | 26.59595 | 107.23069 | 34065 ft | 428 kts | 295° |
| 2026-04-22 11:15 | 26.62127 | 107.17066 | 34065 ft | 428 kts | 295° |
| 2026-04-22 11:16 | 26.64661 | 107.11082 | 34065 ft | 428 kts | 295° |
| 2026-04-22 11:16 | 26.67206 | 107.05107 | 34065 ft | 428 kts | 295° |
| 2026-04-22 11:17 | 26.69754 | 106.99108 | 34065 ft | 428 kts | 295° |
| 2026-04-22 11:17 | 26.72300 | 106.93094 | 34065 ft | 427 kts | 295° |
| 2026-04-22 11:18 | 26.74855 | 106.87092 | 34064 ft | 428 kts | 296° |
| 2026-04-22 11:18 | 26.77836 | 106.81362 | 34066 ft | 429 kts | 302° |
| 2026-04-22 11:19 | 26.81448 | 106.76039 | 34066 ft | 431 kts | 309° |
| 2026-04-22 11:19 | 26.85625 | 106.71251 | 34065 ft | 433 kts | 316° |
| 2026-04-22 11:20 | 26.90131 | 106.66810 | 34065 ft | 434 kts | 316° |
| 2026-04-22 11:20 | 26.94653 | 106.62391 | 34065 ft | 433 kts | 316° |
| 2026-04-22 11:21 | 26.99178 | 106.57958 | 34065 ft | 433 kts | 316° |
| 2026-04-22 11:21 | 27.03681 | 106.53537 | 34065 ft | 432 kts | 315° |
| 2026-04-22 11:22 | 27.08178 | 106.49110 | 34064 ft | 432 kts | 315° |
| 2026-04-22 11:22 | 27.12699 | 106.44668 | 34065 ft | 432 kts | 316° |
| 2026-04-22 11:23 | 27.17199 | 106.40250 | 34065 ft | 432 kts | 315° |
| 2026-04-22 11:23 | 27.21710 | 106.35824 | 34065 ft | 432 kts | 316° |
| 2026-04-22 11:24 | 27.26243 | 106.31423 | 34064 ft | 432 kts | 315° |
| 2026-04-22 11:24 | 27.30778 | 106.27000 | 34066 ft | 432 kts | 315° |
| 2026-04-22 11:25 | 27.35247 | 106.22640 | 34065 ft | 432 kts | 315° |
| 2026-04-22 11:25 | 27.38670 | 106.19297 | 34065 ft | 433 kts | 315° |
| 2026-04-22 11:26 | 27.43431 | 106.14646 | 34065 ft | 432 kts | 315° |
| 2026-04-22 11:26 | 27.47977 | 106.10199 | 34064 ft | 432 kts | 315° |
| 2026-04-22 11:27 | 27.52408 | 106.05857 | 34065 ft | 432 kts | 315° |
| 2026-04-22 11:27 | 27.57065 | 106.01288 | 34064 ft | 432 kts | 315° |
| 2026-04-22 11:28 | 27.61645 | 105.96788 | 34065 ft | 432 kts | 315° |
| 2026-04-22 11:28 | 27.66191 | 105.92300 | 34064 ft | 431 kts | 314° |
| 2026-04-22 11:29 | 27.70256 | 105.87342 | 34065 ft | 428 kts | 305° |
| 2026-04-22 11:29 | 27.73517 | 105.81713 | 34065 ft | 425 kts | 296° |
| 2026-04-22 11:30 | 27.75880 | 105.75624 | 34065 ft | 423 kts | 287° |
| 2026-04-22 11:30 | 27.77668 | 105.69309 | 34064 ft | 423 kts | 286° |
| 2026-04-22 11:31 | 27.79457 | 105.62959 | 34065 ft | 423 kts | 288° |
| 2026-04-22 11:31 | 27.81676 | 105.56746 | 34066 ft | 424 kts | 291° |
| 2026-04-22 11:32 | 27.84047 | 105.50614 | 34065 ft | 424 kts | 292° |
| 2026-04-22 11:32 | 27.86407 | 105.44505 | 34065 ft | 424 kts | 292° |
| 2026-04-22 11:33 | 27.88828 | 105.38368 | 34066 ft | 425 kts | 294° |
| 2026-04-22 11:33 | 27.91480 | 105.32375 | 34066 ft | 424 kts | 294° |
| 2026-04-22 11:34 | 27.94154 | 105.26396 | 34064 ft | 425 kts | 296° |
| 2026-04-22 11:34 | 27.97298 | 105.20895 | 34066 ft | 428 kts | 304° |
| 2026-04-22 11:35 | 28.01351 | 105.15851 | 33910 ft | 432 kts | 314° |
| 2026-04-22 11:35 | 28.03625 | 105.13655 | 33727 ft | 435 kts | 319° |
| 2026-04-22 11:35 | 28.06082 | 105.11667 | 33530 ft | 438 kts | 323° |
| 2026-04-22 11:35 | 28.08648 | 105.09834 | 33331 ft | 439 kts | 324° |
| 2026-04-22 11:36 | 28.11257 | 105.08019 | 33130 ft | 440 kts | 324° |
| 2026-04-22 11:36 | 28.13875 | 105.06212 | 32930 ft | 442 kts | 324° |
| 2026-04-22 11:36 | 28.16507 | 105.04392 | 32729 ft | 442 kts | 324° |
| 2026-04-22 11:36 | 28.19119 | 105.02577 | 32530 ft | 443 kts | 324° |
| 2026-04-22 11:37 | 28.21730 | 105.00756 | 32331 ft | 444 kts | 324° |
| 2026-04-22 11:37 | 28.24351 | 104.98922 | 32132 ft | 445 kts | 324° |
| 2026-04-22 11:37 | 28.26971 | 104.97086 | 31931 ft | 446 kts | 324° |
| 2026-04-22 11:37 | 28.29597 | 104.95242 | 31732 ft | 447 kts | 324° |
| 2026-04-22 11:38 | 28.32243 | 104.93383 | 31532 ft | 448 kts | 324° |
| 2026-04-22 11:38 | 28.34920 | 104.91501 | 31329 ft | 449 kts | 324° |
| 2026-04-22 11:38 | 28.40238 | 104.87769 | 30929 ft | 451 kts | 325° |
| 2026-04-22 11:39 | 28.42914 | 104.85906 | 30727 ft | 453 kts | 325° |
| 2026-04-22 11:39 | 28.45588 | 104.84045 | 30528 ft | 454 kts | 325° |
| 2026-04-22 11:39 | 28.48284 | 104.82165 | 30329 ft | 454 kts | 325° |
| 2026-04-22 11:39 | 28.50914 | 104.80327 | 30133 ft | 455 kts | 325° |
| 2026-04-22 11:40 | 28.53631 | 104.78429 | 29874 ft | 445 kts | 325° |
| 2026-04-22 11:40 | 28.56254 | 104.76593 | 29626 ft | 444 kts | 325° |
| 2026-04-22 11:40 | 28.58877 | 104.74753 | 29377 ft | 446 kts | 325° |
| 2026-04-22 11:40 | 28.61517 | 104.72898 | 29127 ft | 446 kts | 325° |
| 2026-04-22 11:41 | 28.64147 | 104.71050 | 28878 ft | 447 kts | 325° |
| 2026-04-22 11:41 | 28.66788 | 104.69193 | 28628 ft | 448 kts | 325° |
| 2026-04-22 11:41 | 28.69433 | 104.67333 | 28380 ft | 449 kts | 325° |
| 2026-04-22 11:41 | 28.72112 | 104.65447 | 28127 ft | 450 kts | 325° |
| 2026-04-22 11:42 | 28.74778 | 104.63570 | 27878 ft | 451 kts | 325° |
| 2026-04-22 11:42 | 28.77463 | 104.61676 | 27633 ft | 452 kts | 325° |
| 2026-04-22 11:42 | 28.80051 | 104.59850 | 27492 ft | 453 kts | 325° |
| 2026-04-22 11:42 | 28.82785 | 104.57921 | 27285 ft | 453 kts | 325° |
| 2026-04-22 11:43 | 28.85482 | 104.56019 | 27086 ft | 454 kts | 325° |
| 2026-04-22 11:43 | 28.88188 | 104.54105 | 26891 ft | 454 kts | 325° |
| 2026-04-22 11:43 | 28.90868 | 104.52203 | 26693 ft | 455 kts | 325° |
| 2026-04-22 11:43 | 28.93579 | 104.50274 | 26490 ft | 456 kts | 325° |
| 2026-04-22 11:44 | 28.96268 | 104.48359 | 26290 ft | 457 kts | 325° |
| 2026-04-22 11:44 | 28.98978 | 104.46428 | 26087 ft | 460 kts | 325° |
| 2026-04-22 11:44 | 29.01715 | 104.44474 | 25887 ft | 465 kts | 325° |
| 2026-04-22 11:44 | 29.04487 | 104.42491 | 25683 ft | 472 kts | 325° |
| 2026-04-22 11:45 | 29.07293 | 104.40481 | 25479 ft | 478 kts | 326° |
| 2026-04-22 11:45 | 29.10083 | 104.38465 | 25414 ft | 469 kts | 327° |
| 2026-04-22 11:45 | 29.12760 | 104.36504 | 25289 ft | 449 kts | 327° |
| 2026-04-22 11:45 | 29.15394 | 104.34649 | 25085 ft | 434 kts | 327° |
| 2026-04-22 11:46 | 29.17946 | 104.32844 | 24891 ft | 435 kts | 327° |
| 2026-04-22 11:46 | 29.20487 | 104.31029 | 24690 ft | 434 kts | 327° |
| 2026-04-22 11:46 | 29.22990 | 104.29236 | 24493 ft | 432 kts | 327° |
| 2026-04-22 11:46 | 29.25573 | 104.27382 | 24291 ft | 431 kts | 327° |
| 2026-04-22 11:47 | 29.28058 | 104.25521 | 24090 ft | 430 kts | 325° |
| 2026-04-22 11:47 | 29.30508 | 104.23579 | 23883 ft | 418 kts | 324° |
| 2026-04-22 11:47 | 29.32859 | 104.21695 | 23679 ft | 405 kts | 324° |
| 2026-04-22 11:47 | 29.35115 | 104.19881 | 23607 ft | 398 kts | 324° |
| 2026-04-22 11:48 | 29.37166 | 104.18230 | 23454 ft | 401 kts | 324° |
| 2026-04-22 11:48 | 29.39637 | 104.16241 | 23032 ft | 397 kts | 324° |
| 2026-04-22 11:48 | 29.41907 | 104.14411 | 22652 ft | 395 kts | 325° |
| 2026-04-22 11:48 | 29.44155 | 104.12600 | 22273 ft | 393 kts | 325° |
| 2026-04-22 11:49 | 29.46388 | 104.10800 | 21897 ft | 392 kts | 325° |
| 2026-04-22 11:49 | 29.48622 | 104.08999 | 21520 ft | 390 kts | 325° |
| 2026-04-22 11:49 | 29.50832 | 104.07215 | 21144 ft | 389 kts | 325° |
| 2026-04-22 11:49 | 29.53021 | 104.05448 | 20767 ft | 387 kts | 326° |
| 2026-04-22 11:50 | 29.55207 | 104.03682 | 20393 ft | 385 kts | 326° |
| 2026-04-22 11:50 | 29.57372 | 104.01932 | 20020 ft | 384 kts | 326° |
| 2026-04-22 11:50 | 29.59552 | 104.00169 | 19661 ft | 382 kts | 326° |
| 2026-04-22 11:50 | 29.61713 | 103.98421 | 19307 ft | 380 kts | 326° |
| 2026-04-22 11:51 | 29.63846 | 103.96693 | 18955 ft | 372 kts | 326° |
| 2026-04-22 11:51 | 29.65940 | 103.94995 | 18602 ft | 365 kts | 326° |
| 2026-04-22 11:51 | 29.67950 | 103.93366 | 18255 ft | 358 kts | 326° |
| 2026-04-22 11:51 | 29.69981 | 103.91720 | 17899 ft | 352 kts | 326° |
| 2026-04-22 11:52 | 29.72007 | 103.90174 | 17539 ft | 345 kts | 333° |
| 2026-04-22 11:52 | 29.74184 | 103.89152 | 17188 ft | 337 kts | 346° |
| 2026-04-22 11:52 | 29.76455 | 103.88704 | 16836 ft | 331 kts | 357° |
| 2026-04-22 11:52 | 29.78714 | 103.88809 | 16485 ft | 325 kts | 8° |
| 2026-04-22 11:53 | 29.80875 | 103.89437 | 16134 ft | 320 kts | 19° |
| 2026-04-22 11:53 | 29.82927 | 103.90351 | 15785 ft | 316 kts | 21° |
| 2026-04-22 11:53 | 29.84938 | 103.91290 | 15433 ft | 312 kts | 21° |
| 2026-04-22 11:53 | 29.86939 | 103.92224 | 15078 ft | 308 kts | 21° |
| 2026-04-22 11:54 | 29.88900 | 103.93137 | 14727 ft | 304 kts | 22° |
| 2026-04-22 11:54 | 29.90837 | 103.94037 | 14376 ft | 300 kts | 22° |
| 2026-04-22 11:54 | 29.92756 | 103.94926 | 14023 ft | 297 kts | 22° |
| 2026-04-22 11:54 | 29.94652 | 103.95805 | 13672 ft | 294 kts | 22° |
| 2026-04-22 11:55 | 29.96525 | 103.96673 | 13321 ft | 291 kts | 22° |
| 2026-04-22 11:55 | 29.98381 | 103.97532 | 12970 ft | 288 kts | 22° |
| 2026-04-22 11:55 | 30.00219 | 103.98384 | 12825 ft | 277 kts | 22° |
| 2026-04-22 11:55 | 30.01958 | 103.99189 | 12814 ft | 268 kts | 22° |
| 2026-04-22 11:56 | 30.03683 | 103.99989 | 12814 ft | 269 kts | 22° |
| 2026-04-22 11:56 | 30.05413 | 104.00791 | 12813 ft | 269 kts | 22° |
| 2026-04-22 11:56 | 30.07142 | 104.01592 | 12812 ft | 269 kts | 22° |
| 2026-04-22 11:56 | 30.08871 | 104.02394 | 12811 ft | 269 kts | 22° |
| 2026-04-22 11:57 | 30.10604 | 104.03197 | 12811 ft | 269 kts | 22° |
| 2026-04-22 11:57 | 30.12311 | 104.03985 | 12810 ft | 269 kts | 22° |
| 2026-04-22 11:57 | 30.13958 | 104.04747 | 12791 ft | 268 kts | 22° |
| 2026-04-22 11:57 | 30.15700 | 104.05557 | 12578 ft | 265 kts | 22° |
| 2026-04-22 11:58 | 30.17428 | 104.06362 | 12153 ft | 266 kts | 22° |
| 2026-04-22 11:58 | 30.19139 | 104.07160 | 11772 ft | 266 kts | 22° |
| 2026-04-22 11:58 | 30.20856 | 104.07907 | 11415 ft | 265 kts | 15° |
| 2026-04-22 11:58 | 30.22672 | 104.08146 | 11049 ft | 265 kts | 358° |
| 2026-04-22 11:59 | 30.24480 | 104.07737 | 10699 ft | 266 kts | 341° |
| 2026-04-22 11:59 | 30.26075 | 104.06748 | 10347 ft | 267 kts | 324° |
| 2026-04-22 11:59 | 30.27369 | 104.05238 | 9997 ft | 268 kts | 307° |
| 2026-04-22 11:59 | 30.28256 | 104.03330 | 9654 ft | 268 kts | 294° |
| 2026-04-22 12:00 | 30.28934 | 104.01338 | 9319 ft | 267 kts | 293° |
| 2026-04-22 12:00 | 30.29465 | 103.99328 | 8969 ft | 269 kts | 278° |
| 2026-04-22 12:00 | 30.29286 | 103.97169 | 8612 ft | 270 kts | 251° |
| 2026-04-22 12:00 | 30.28322 | 103.95325 | 8268 ft | 271 kts | 225° |
| 2026-04-22 12:01 | 30.26764 | 103.94143 | 8070 ft | 264 kts | 203° |
| 2026-04-22 12:01 | 30.25084 | 103.93405 | 7899 ft | 258 kts | 200° |
| 2026-04-22 12:01 | 30.23389 | 103.92683 | 7527 ft | 260 kts | 201° |
| 2026-04-22 12:01 | 30.21744 | 103.91951 | 7165 ft | 262 kts | 201° |
| 2026-04-22 12:02 | 30.20340 | 103.91312 | 6876 ft | 262 kts | 202° |
| 2026-04-22 12:02 | 30.18665 | 103.90372 | 6600 ft | 258 kts | 220° |
| 2026-04-22 12:02 | 30.17577 | 103.88759 | 6344 ft | 250 kts | 251° |
| 2026-04-22 12:02 | 30.17292 | 103.86808 | 6097 ft | 242 kts | 277° |
| 2026-04-22 12:03 | 30.17761 | 103.84987 | 5850 ft | 235 kts | 297° |
| 2026-04-22 12:03 | 30.18468 | 103.83304 | 5601 ft | 232 kts | 298° |
| 2026-04-22 12:03 | 30.19187 | 103.81642 | 5297 ft | 232 kts | 298° |
| 2026-04-22 12:03 | 30.20078 | 103.80102 | 4928 ft | 231 kts | 324° |
| 2026-04-22 12:04 | 30.21507 | 103.79521 | 4922 ft | 213 kts | 359° |
| 2026-04-22 12:04 | 30.22922 | 103.79679 | 4907 ft | 193 kts | 8° |
| 2026-04-22 12:04 | 30.24213 | 103.79884 | 4895 ft | 188 kts | 7° |
| 2026-04-22 12:04 | 30.25510 | 103.80070 | 4894 ft | 189 kts | 8° |
| 2026-04-22 12:05 | 30.26791 | 103.80371 | 4893 ft | 189 kts | 15° |
| 2026-04-22 12:05 | 30.27962 | 103.80850 | 4894 ft | 189 kts | 21° |
| 2026-04-22 12:05 | 30.28862 | 103.81276 | 4893 ft | 189 kts | 21° |
| 2026-04-22 12:05 | 30.30227 | 103.81910 | 4893 ft | 189 kts | 21° |
| 2026-04-22 12:06 | 30.31467 | 103.82471 | 4893 ft | 189 kts | 21° |
| 2026-04-22 12:06 | 30.32690 | 103.83026 | 4893 ft | 189 kts | 21° |
| 2026-04-22 12:06 | 30.33915 | 103.83586 | 4893 ft | 189 kts | 21° |
| 2026-04-22 12:06 | 30.35135 | 103.84146 | 4893 ft | 189 kts | 21° |
| 2026-04-22 12:07 | 30.36361 | 103.84712 | 4893 ft | 189 kts | 21° |
| 2026-04-22 12:07 | 30.37590 | 103.85279 | 4893 ft | 189 kts | 21° |
| 2026-04-22 12:07 | 30.38815 | 103.85847 | 4893 ft | 189 kts | 21° |
| 2026-04-22 12:07 | 30.40032 | 103.86411 | 4893 ft | 189 kts | 21° |
| 2026-04-22 12:08 | 30.41279 | 103.86990 | 4823 ft | 190 kts | 21° |
| 2026-04-22 12:08 | 30.42489 | 103.87552 | 4598 ft | 189 kts | 21° |
| 2026-04-22 12:08 | 30.43697 | 103.88114 | 4349 ft | 188 kts | 21° |
| 2026-04-22 12:08 | 30.44911 | 103.88678 | 4097 ft | 185 kts | 21° |
| 2026-04-22 12:09 | 30.46074 | 103.89219 | 3848 ft | 177 kts | 21° |
| 2026-04-22 12:09 | 30.47166 | 103.89728 | 3607 ft | 166 kts | 21° |
| 2026-04-22 12:09 | 30.48234 | 103.90224 | 3419 ft | 161 kts | 21° |
| 2026-04-22 12:09 | 30.49247 | 103.90694 | 3199 ft | 155 kts | 21° |
| 2026-04-22 12:10 | 30.50244 | 103.91158 | 2999 ft | 156 kts | 21° |
| 2026-04-22 12:10 | 30.51190 | 103.91598 | 2792 ft | 149 kts | 21° |
| 2026-04-22 12:10 | 30.51932 | 103.91945 | 2644 ft | 147 kts | 21° |
| 2026-04-22 12:10 | 30.52885 | 103.92388 | 2454 ft | 148 kts | 21° |
| 2026-04-22 12:11 | 30.53864 | 103.92842 | 2255 ft | 148 kts | 21° |
| 2026-04-22 12:11 | 30.54914 | 103.93330 | 2034 ft | 147 kts | 20° |
| 2026-04-22 12:11 | 30.55890 | 103.93784 | 1831 ft | 147 kts | 21° |
| 2026-04-22 12:11 | 30.56820 | 103.94232 | 1695 ft | 141 kts | 22° |
| 2026-04-22 12:12 | 30.57617 | 103.94591 | 1691 ft | 102 kts | 21° |
| 2026-04-22 12:12 | 30.58112 | 103.94818 | 1690 ft | 53 kts | 32° |
| 2026-04-22 12:12 | 30.58365 | 103.94951 | 1690 ft | 37 kts | 24° |
| 2026-04-22 12:12 | 30.58552 | 103.95134 | 1690 ft | 32 kts | 61° |
| 2026-04-22 12:13 | 30.58538 | 103.95284 | 1690 ft | 12 kts | 140° |
| 2026-04-22 12:13 | 30.58454 | 103.95273 | 1690 ft | 19 kts | 191° |
| 2026-04-22 12:13 | 30.58317 | 103.95218 | 1690 ft | 21 kts | 203° |
| 2026-04-22 12:13 | 30.58180 | 103.95156 | 1690 ft | 21 kts | 202° |
| 2026-04-22 12:14 | 30.58047 | 103.95094 | 1690 ft | 21 kts | 202° |
| 2026-04-22 12:14 | 30.57911 | 103.95031 | 1690 ft | 21 kts | 201° |
| 2026-04-22 12:14 | 30.57777 | 103.94971 | 1690 ft | 21 kts | 201° |
| 2026-04-22 12:14 | 30.57643 | 103.94909 | 1690 ft | 21 kts | 203° |
| 2026-04-22 12:15 | 30.57510 | 103.94847 | 1690 ft | 21 kts | 200° |
| 2026-04-22 12:15 | 30.57377 | 103.94791 | 1690 ft | 21 kts | 201° |
| 2026-04-22 12:15 | 30.57247 | 103.94724 | 1690 ft | 21 kts | 207° |
| 2026-04-22 12:15 | 30.57116 | 103.94662 | 1690 ft | 20 kts | 201° |
| 2026-04-22 12:16 | 30.56997 | 103.94630 | 1690 ft | 11 kts | 166° |
| 2026-04-22 12:16 | 30.56951 | 103.94692 | 1690 ft | 11 kts | 117° |
| 2026-04-22 12:16 | 30.56923 | 103.94779 | 1690 ft | 12 kts | 115° |
| 2026-04-22 12:16 | 30.56888 | 103.94871 | 1690 ft | 13 kts | 105° |
| 2026-04-22 12:17 | 30.56914 | 103.94927 | 1690 ft | 6 kts | 24° |
| 2026-04-22 12:17 | 30.56944 | 103.94943 | 1690 ft | 4 kts | 22° |
| 2026-04-22 12:17 | 30.56945 | 103.94943 | 1690 ft | 0 kts | 22° |